Time;durP1;ratioP1;P1;durP2;ratioP2;P2;SDS_P1;SDS_P2;PMS_P1;PMS_P2;Temp;Humidity;BMP_temperature;BMP_pressure;BME280_temperature;BME280_humidity;BME280_pressure;Samples;Min_cycle;Max_cycle;Signal;HPM_P1;HPM_P2
2021/06/19 00:00:16;;;;;;;;;;;27.10;52.60;;;;;;5030158;28;19916;-62
2021/06/19 00:02:41;;;;;;;;;;;27.10;52.40;;;;;;5025597;28;19928;-62
2021/06/19 00:05:07;;;;;;;;;;;27.10;52.30;;;;;;5027207;28;19917;-60
2021/06/19 00:07:33;;;;;;;;;;;27.10;52.30;;;;;;5025095;28;19921;-63
2021/06/19 00:09:58;;;;;;;;;;;27.10;52.30;;;;;;5029761;28;20334;-63
2021/06/19 00:12:24;;;;;;;;;;;27.10;52.30;;;;;;5023674;28;19917;-61
2021/06/19 00:14:49;;;;;;;;;;;27.10;52.40;;;;;;5022572;28;19921;-62
2021/06/19 00:17:15;;;;;;;;;;;27.10;52.50;;;;;;5023962;28;19975;-63
2021/06/19 00:19:40;;;;;;;;;;;27.20;52.60;;;;;;5022842;28;20548;-62
2021/06/19 00:22:05;;;;;;;;;;;27.20;52.50;;;;;;5021571;28;19917;-61
2021/06/19 00:24:33;;;;;;;;;;;27.20;52.50;;;;;;5022729;28;19925;-62
2021/06/19 00:26:59;;;;;;;;;;;27.20;52.40;;;;;;5020693;28;19917;-61
2021/06/19 00:29:24;;;;;;;;;;;27.10;52.50;;;;;;5023174;28;19917;-63
2021/06/19 00:31:50;;;;;;;;;;;27.10;52.50;;;;;;5025855;28;19925;-62
2021/06/19 00:34:15;;;;;;;;;;;27.10;52.50;;;;;;5026560;28;20069;-62
2021/06/19 00:36:40;;;;;;;;;;;27.10;52.40;;;;;;5027251;28;19924;-63
2021/06/19 00:39:06;;;;;;;;;;;27.20;52.60;;;;;;5020997;28;19921;-63
2021/06/19 00:41:32;;;;;;;;;;;27.10;52.50;;;;;;5022547;28;19924;-62
2021/06/19 00:43:57;;;;;;;;;;;27.10;52.50;;;;;;5022502;28;20440;-62
2021/06/19 00:46:22;;;;;;;;;;;27.10;52.50;;;;;;5023833;28;19921;-62
2021/06/19 00:48:48;;;;;;;;;;;27.10;52.60;;;;;;5029856;28;19966;-62
2021/06/19 00:51:13;;;;;;;;;;;27.10;52.70;;;;;;5024062;28;19924;-61
2021/06/19 00:53:39;;;;;;;;;;;27.10;52.70;;;;;;5033127;28;20298;-61
2021/06/19 00:56:04;;;;;;;;;;;27.10;52.70;;;;;;5030194;28;19963;-63
2021/06/19 00:58:31;;;;;;;;;;;27.10;52.70;;;;;;5031158;28;19932;-63
2021/06/19 01:00:56;;;;;;;;;;;27.10;52.70;;;;;;5038007;28;19917;-61
2021/06/19 01:03:22;;;;;;;;;;;27.20;52.70;;;;;;5027014;28;19921;-63
2021/06/19 01:05:49;;;;;;;;;;;27.10;52.60;;;;;;5026749;28;20500;-63
2021/06/19 01:08:14;;;;;;;;;;;27.10;52.50;;;;;;5030645;28;19931;-60
2021/06/19 01:10:40;;;;;;;;;;;27.10;52.50;;;;;;5038548;28;19917;-62
2021/06/19 01:13:06;;;;;;;;;;;27.20;52.70;;;;;;5026342;28;19921;-62
2021/06/19 01:15:32;;;;;;;;;;;27.10;52.30;;;;;;5025504;28;19928;-62
2021/06/19 01:17:57;;;;;;;;;;;27.10;52.30;;;;;;5024947;28;19917;-63
2021/06/19 01:20:22;;;;;;;;;;;27.10;52.40;;;;;;5027783;28;20586;-61
2021/06/19 01:22:49;;;;;;;;;;;27.10;52.50;;;;;;5028222;28;19917;-62
2021/06/19 01:25:16;;;;;;;;;;;27.10;52.50;;;;;;5025107;28;19932;-62
2021/06/19 01:27:42;;;;;;;;;;;27.10;52.60;;;;;;5026788;28;19917;-62
2021/06/19 01:30:08;;;;;;;;;;;27.10;52.60;;;;;;5024550;28;19921;-62
2021/06/19 01:32:34;;;;;;;;;;;27.10;52.50;;;;;;5033293;28;20313;-62
2021/06/19 01:34:59;;;;;;;;;;;27.10;52.50;;;;;;5033410;28;19931;-63
2021/06/19 01:37:25;;;;;;;;;;;27.10;52.50;;;;;;5026955;28;19917;-62
2021/06/19 01:39:50;;;;;;;;;;;27.10;52.60;;;;;;5025720;28;19917;-61
2021/06/19 01:42:15;;;;;;;;;;;27.10;52.50;;;;;;5024950;28;19925;-62
2021/06/19 01:44:41;;;;;;;;;;;27.10;52.50;;;;;;5031682;28;20358;-61
2021/06/19 01:47:07;;;;;;;;;;;27.10;52.40;;;;;;5026095;28;19921;-61
2021/06/19 01:49:35;;;;;;;;;;;27.10;52.60;;;;;;5033616;28;19921;-63
2021/06/19 01:52:01;;;;;;;;;;;27.10;52.70;;;;;;5013055;28;20028;-63
2021/06/19 01:54:26;;;;;;;;;;;27.10;52.70;;;;;;5025818;28;19925;-63
2021/06/19 01:56:52;;;;;;;;;;;27.10;52.70;;;;;;5026538;28;20035;-63
2021/06/19 01:59:17;;;;;;;;;;;27.00;52.60;;;;;;5026249;28;19917;-62
2021/06/19 02:01:43;;;;;;;;;;;27.10;52.70;;;;;;5026581;28;19917;-62
2021/06/19 02:04:08;;;;;;;;;;;27.00;52.60;;;;;;5025514;28;19963;-62
2021/06/19 02:06:34;;;;;;;;;;;27.10;52.70;;;;;;5022711;28;20167;-63
2021/06/19 02:09:02;;;;;;;;;;;27.10;52.60;;;;;;5029668;28;19921;-63
2021/06/19 02:11:28;;;;;;;;;;;27.10;52.60;;;;;;5024024;28;19924;-62
2021/06/19 02:13:53;;;;;;;;;;;27.00;52.40;;;;;;5036520;28;19921;-62
2021/06/19 02:16:18;;;;;;;;;;;27.00;52.30;;;;;;5029694;28;20394;-63
2021/06/19 02:18:44;;;;;;;;;;;27.00;52.40;;;;;;5028061;28;20482;-59
2021/06/19 02:21:09;;;;;;;;;;;27.00;52.40;;;;;;5024174;28;19967;-62
2021/06/19 02:23:35;;;;;;;;;;;27.00;52.30;;;;;;5028017;28;19917;-62
2021/06/19 02:26:00;;;;;;;;;;;27.00;52.40;;;;;;5026311;28;20690;-63
2021/06/19 02:28:26;;;;;;;;;;;27.00;52.20;;;;;;5027491;28;19921;-61
2021/06/19 02:30:54;;;;;;;;;;;27.00;52.20;;;;;;5025817;28;19932;-60
2021/06/19 02:33:19;;;;;;;;;;;26.90;52.20;;;;;;5025103;28;19951;-63
2021/06/19 02:35:45;;;;;;;;;;;26.90;52.00;;;;;;5025297;28;19921;-62
2021/06/19 02:38:10;;;;;;;;;;;26.90;52.30;;;;;;5022930;28;19917;-63
2021/06/19 02:40:38;;;;;;;;;;;26.90;52.40;;;;;;5026648;28;19917;-63
2021/06/19 02:43:04;;;;;;;;;;;26.90;52.40;;;;;;5024592;28;19949;-62
2021/06/19 02:45:29;;;;;;;;;;;26.90;52.50;;;;;;5031937;28;20299;-62
2021/06/19 02:47:55;;;;;;;;;;;26.90;52.50;;;;;;5025047;28;19921;-62
2021/06/19 02:50:22;;;;;;;;;;;27.00;52.20;;;;;;5024462;28;19924;-62
2021/06/19 02:52:47;;;;;;;;;;;27.00;51.90;;;;;;5023590;28;19964;-62
2021/06/19 02:55:16;;;;;;;;;;;26.90;51.90;;;;;;5022906;28;20018;-62
2021/06/19 02:57:42;;;;;;;;;;;26.90;52.20;;;;;;5037324;22;19932;-68
2021/06/19 03:00:08;;;;;;;;;;;26.90;52.30;;;;;;5020236;28;19917;-68
2021/06/19 03:02:33;;;;;;;;;;;26.90;52.90;;;;;;5024207;28;19917;-68
2021/06/19 03:04:59;;;;;;;;;;;26.90;52.10;;;;;;5027227;28;19925;-68
2021/06/19 03:07:24;;;;;;;;;;;26.90;51.90;;;;;;5026286;28;20379;-68
2021/06/19 03:09:50;;;;;;;;;;;26.90;52.00;;;;;;5039511;28;20001;-68
2021/06/19 03:12:15;;;;;;;;;;;26.90;52.10;;;;;;5013060;28;19925;-68
2021/06/19 03:14:40;;;;;;;;;;;26.90;52.10;;;;;;5030237;28;20354;-68
2021/06/19 03:17:06;;;;;;;;;;;26.90;52.20;;;;;;5039547;28;19964;-68
2021/06/19 03:19:31;;;;;;;;;;;26.90;52.10;;;;;;5046916;28;19916;-68
2021/06/19 03:21:58;;;;;;;;;;;26.90;52.20;;;;;;5026032;28;19917;-68
2021/06/19 03:24:23;;;;;;;;;;;26.90;52.20;;;;;;5022568;28;20451;-68
2021/06/19 03:26:49;;;;;;;;;;;26.90;52.20;;;;;;5044605;28;19917;-68
2021/06/19 03:29:14;;;;;;;;;;;26.90;51.90;;;;;;5045428;28;20298;-68
2021/06/19 03:31:40;;;;;;;;;;;26.90;51.70;;;;;;5046521;28;19921;-68
2021/06/19 03:34:05;;;;;;;;;;;26.90;51.70;;;;;;5020639;28;19917;-68
2021/06/19 03:36:31;;;;;;;;;;;26.80;51.70;;;;;;5035355;28;19925;-68
2021/06/19 03:38:56;;;;;;;;;;;26.90;51.90;;;;;;5045907;28;19917;-68
2021/06/19 03:41:21;;;;;;;;;;;26.90;51.80;;;;;;5028301;28;19913;-68
2021/06/19 03:43:47;;;;;;;;;;;26.90;51.80;;;;;;5034499;28;19921;-68
2021/06/19 03:46:12;;;;;;;;;;;26.90;51.90;;;;;;5034484;28;20561;-69
2021/06/19 03:48:38;;;;;;;;;;;26.80;51.60;;;;;;5014642;28;19917;-68
2021/06/19 03:51:03;;;;;;;;;;;26.90;51.70;;;;;;5011765;28;19925;-68
2021/06/19 03:53:29;;;;;;;;;;;26.80;51.60;;;;;;5030730;28;20296;-68
2021/06/19 03:55:55;;;;;;;;;;;26.80;51.90;;;;;;5015451;28;19925;-68
2021/06/19 03:58:20;;;;;;;;;;;26.80;51.90;;;;;;5036205;28;20379;-68
2021/06/19 04:00:46;;;;;;;;;;;26.80;52.20;;;;;;5037241;28;19917;-68
2021/06/19 04:03:11;;;;;;;;;;;26.80;52.10;;;;;;5037318;28;20433;-68
2021/06/19 04:05:36;;;;;;;;;;;26.90;52.10;;;;;;5034208;28;19924;-68
2021/06/19 04:08:02;;;;;;;;;;;26.90;52.30;;;;;;5032267;28;19952;-68
2021/06/19 04:10:27;;;;;;;;;;;26.90;52.30;;;;;;5020160;28;19924;-68
2021/06/19 04:12:53;;;;;;;;;;;26.90;52.40;;;;;;5020005;28;20299;-68
2021/06/19 04:15:18;;;;;;;;;;;26.90;52.40;;;;;;5016701;28;19929;-68
2021/06/19 04:17:44;;;;;;;;;;;26.90;52.30;;;;;;5024471;28;19929;-67
2021/06/19 04:20:10;;;;;;;;;;;26.90;52.50;;;;;;5022196;28;20498;-68
2021/06/19 04:22:35;;;;;;;;;;;26.90;52.70;;;;;;4998364;28;20008;-68
2021/06/19 04:25:01;;;;;;;;;;;26.90;52.50;;;;;;5011869;28;20024;-68
2021/06/19 04:27:26;;;;;;;;;;;26.90;52.60;;;;;;5023727;28;19924;-68
2021/06/19 04:29:52;;;;;;;;;;;26.90;52.60;;;;;;5024767;28;19943;-68
2021/06/19 04:32:18;;;;;;;;;;;26.90;52.60;;;;;;5030114;28;20511;-68
2021/06/19 04:34:43;;;;;;;;;;;26.90;52.50;;;;;;5041560;28;19921;-69
2021/06/19 04:37:09;;;;;;;;;;;26.90;52.60;;;;;;5037388;28;19917;-68
2021/06/19 04:39:39;;;;;;;;;;;27.00;52.70;;;;;;5020047;28;19918;-68
2021/06/19 04:42:06;;;;;;;;;;;27.00;52.80;;;;;;5015077;28;19953;-68
2021/06/19 04:45:00;;;;;;;;;;;27.00;52.80;;;;;;5034484;28;19921;-68
2021/06/19 04:47:17;;;;;;;;;;;27.00;52.60;;;;;;5019940;28;19924;-68
2021/06/19 04:49:43;;;;;;;;;;;27.00;52.80;;;;;;5005615;28;19918;-68
2021/06/19 04:52:08;;;;;;;;;;;27.00;52.80;;;;;;5030263;28;19950;-68
2021/06/19 04:54:38;;;;;;;;;;;27.10;53.00;;;;;;5038368;28;20324;-68
2021/06/19 04:57:06;;;;;;;;;;;27.10;52.90;;;;;;5016445;28;20447;-68
2021/06/19 04:59:32;;;;;;;;;;;27.00;52.80;;;;;;5038228;28;19921;-68
2021/06/19 05:01:57;;;;;;;;;;;27.10;53.00;;;;;;5018937;28;19925;-68
2021/06/19 05:04:23;;;;;;;;;;;27.10;53.00;;;;;;5021175;28;20316;-68
2021/06/19 05:06:48;;;;;;;;;;;27.10;52.90;;;;;;5027111;28;19927;-68
2021/06/19 05:09:14;;;;;;;;;;;27.10;53.00;;;;;;5041453;28;20403;-68
2021/06/19 05:11:39;;;;;;;;;;;27.10;52.80;;;;;;5038932;28;19917;-68
2021/06/19 05:14:04;;;;;;;;;;;27.10;53.00;;;;;;5038503;28;19917;-67
2021/06/19 05:16:30;;;;;;;;;;;27.10;52.90;;;;;;5033336;28;19960;-67
2021/06/19 05:18:55;;;;;;;;;;;27.10;52.90;;;;;;5014422;28;20261;-68
2021/06/19 05:21:21;;;;;;;;;;;27.10;52.70;;;;;;5033739;28;19921;-68
2021/06/19 05:23:46;;;;;;;;;;;27.10;52.80;;;;;;5010134;28;20008;-68
2021/06/19 05:26:12;;;;;;;;;;;27.10;52.70;;;;;;5040499;28;19941;-68
2021/06/19 05:28:37;;;;;;;;;;;27.10;52.50;;;;;;5039319;28;19924;-68
2021/06/19 05:31:03;;;;;;;;;;;27.20;52.60;;;;;;5039100;28;20284;-68
2021/06/19 05:33:29;;;;;;;;;;;27.10;52.50;;;;;;5019536;28;19917;-68
2021/06/19 05:35:54;;;;;;;;;;;27.20;52.50;;;;;;5018413;28;19990;-68
2021/06/19 05:38:20;;;;;;;;;;;27.20;52.70;;;;;;5028201;22;19987;-66
2021/06/19 05:40:46;;;;;;;;;;;27.20;52.30;;;;;;5044274;28;19917;-65
2021/06/19 05:43:11;;;;;;;;;;;27.20;52.40;;;;;;5048183;28;19916;-65
2021/06/19 05:45:37;;;;;;;;;;;27.20;52.40;;;;;;5046868;28;19917;-66
2021/06/19 05:48:02;;;;;;;;;;;27.20;52.40;;;;;;5044088;28;19917;-65
2021/06/19 05:50:28;;;;;;;;;;;27.20;52.40;;;;;;5032404;28;19946;-65
2021/06/19 05:52:53;;;;;;;;;;;27.20;52.50;;;;;;5031123;28;20585;-64
2021/06/19 05:55:19;;;;;;;;;;;27.20;52.20;;;;;;5042672;28;20014;-64
2021/06/19 05:57:44;;;;;;;;;;;27.20;52.40;;;;;;5024303;28;20035;-64
2021/06/19 06:00:10;;;;;;;;;;;27.20;52.40;;;;;;5036005;28;19921;-66
2021/06/19 06:02:35;;;;;;;;;;;27.20;52.40;;;;;;5032512;28;19917;-67
2021/06/19 06:05:01;;;;;;;;;;;27.20;52.60;;;;;;5028063;28;19917;-67
2021/06/19 06:07:26;;;;;;;;;;;27.20;52.50;;;;;;5031133;28;19917;-67
2021/06/19 06:09:52;;;;;;;;;;;27.20;52.60;;;;;;5034749;28;19923;-67
2021/06/19 06:12:17;;;;;;;;;;;27.20;53.00;;;;;;5029718;28;20388;-66
2021/06/19 06:14:42;;;;;;;;;;;27.20;52.90;;;;;;5031282;28;19921;-67
2021/06/19 06:17:08;;;;;;;;;;;27.20;52.80;;;;;;5038992;28;19928;-66
2021/06/19 06:19:33;;;;;;;;;;;27.20;52.80;;;;;;5033502;28;19924;-66
2021/06/19 06:21:59;;;;;;;;;;;27.20;52.70;;;;;;5030075;28;20277;-67
2021/06/19 06:24:24;;;;;;;;;;;27.20;52.70;;;;;;5034058;28;19917;-67
2021/06/19 06:26:50;;;;;;;;;;;27.20;52.90;;;;;;5008690;28;20085;-67
2021/06/19 06:29:15;;;;;;;;;;;27.20;52.80;;;;;;5028011;28;19932;-67
2021/06/19 06:31:41;;;;;;;;;;;27.20;52.80;;;;;;5035135;28;19917;-67
2021/06/19 06:34:06;;;;;;;;;;;27.20;52.60;;;;;;5025965;28;19984;-67
2021/06/19 06:36:31;;;;;;;;;;;27.20;52.60;;;;;;5031355;28;19940;-66
2021/06/19 06:39:01;;;;;;;;;;;27.20;52.80;;;;;;5031697;28;19921;-67
2021/06/19 06:41:27;;;;;;;;;;;27.20;52.90;;;;;;5029763;28;19917;-67
2021/06/19 06:43:52;;;;;;;;;;;27.20;52.90;;;;;;5031360;28;19928;-68
2021/06/19 06:46:18;;;;;;;;;;;27.20;52.90;;;;;;5027805;28;19917;-67
2021/06/19 06:48:43;;;;;;;;;;;27.20;52.80;;;;;;5026845;28;20355;-68
2021/06/19 06:51:09;;;;;;;;;;;27.20;52.80;;;;;;5035232;28;20319;-68
2021/06/19 06:53:34;;;;;;;;;;;27.20;52.80;;;;;;5032072;28;19967;-68
2021/06/19 06:56:00;;;;;;;;;;;27.20;52.70;;;;;;5032765;28;19925;-68
2021/06/19 06:58:25;;;;;;;;;;;27.20;52.80;;;;;;5034746;28;20388;-68
2021/06/19 07:00:50;;;;;;;;;;;27.20;52.70;;;;;;5044527;28;22632;-68
2021/06/19 07:03:16;;;;;;;;;;;27.20;52.80;;;;;;5032662;28;19918;-66
2021/06/19 07:05:41;;;;;;;;;;;27.20;52.80;;;;;;5038096;28;19995;-67
2021/06/19 07:08:07;;;;;;;;;;;27.20;52.80;;;;;;5031595;28;19928;-66
2021/06/19 07:10:32;;;;;;;;;;;27.20;53.10;;;;;;5033937;28;19925;-67
2021/06/19 07:12:58;;;;;;;;;;;27.20;53.00;;;;;;5028136;28;19936;-66
2021/06/19 07:15:23;;;;;;;;;;;27.20;53.10;;;;;;5026048;28;19948;-67
2021/06/19 07:17:49;;;;;;;;;;;27.20;53.10;;;;;;5026280;28;19917;-66
2021/06/19 07:20:14;;;;;;;;;;;27.20;53.10;;;;;;5032732;28;20379;-66
2021/06/19 07:22:40;;;;;;;;;;;27.20;53.30;;;;;;5019369;28;19925;-65
2021/06/19 07:25:06;;;;;;;;;;;27.20;53.40;;;;;;5033467;28;19924;-65
2021/06/19 07:27:31;;;;;;;;;;;27.30;53.80;;;;;;5037758;28;19924;-65
2021/06/19 07:29:57;;;;;;;;;;;27.20;53.70;;;;;;5032621;28;19921;-65
2021/06/19 07:32:22;;;;;;;;;;;27.20;53.40;;;;;;5027721;28;19970;-65
2021/06/19 07:34:48;;;;;;;;;;;27.30;53.50;;;;;;5026533;28;19927;-65
2021/06/19 07:37:13;;;;;;;;;;;27.20;53.50;;;;;;5035308;28;20384;-65
2021/06/19 07:39:39;;;;;;;;;;;27.20;53.50;;;;;;5035460;28;19944;-64
2021/06/19 07:42:04;;;;;;;;;;;27.30;53.50;;;;;;5035114;28;19966;-65
2021/06/19 07:44:31;;;;;;;;;;;27.30;53.50;;;;;;5026844;28;19917;-65
2021/06/19 07:46:57;;;;;;;;;;;27.30;53.60;;;;;;5031857;28;20035;-65
2021/06/19 07:49:23;;;;;;;;;;;27.20;53.50;;;;;;5032263;28;19929;-65
2021/06/19 07:51:48;;;;;;;;;;;27.20;53.40;;;;;;5036748;28;20471;-65
2021/06/19 07:54:14;;;;;;;;;;;27.30;53.40;;;;;;5029590;28;19963;-65
2021/06/19 07:56:39;;;;;;;;;;;27.30;53.40;;;;;;5030354;28;19943;-65
2021/06/19 07:59:05;;;;;;;;;;;27.30;53.40;;;;;;5027567;28;19979;-65
2021/06/19 08:01:30;;;;;;;;;;;27.30;53.40;;;;;;5028130;28;19921;-65
2021/06/19 08:03:56;;;;;;;;;;;27.30;53.50;;;;;;5028924;28;20591;-65
2021/06/19 08:06:21;;;;;;;;;;;27.30;53.40;;;;;;5032872;28;19921;-65
2021/06/19 08:08:47;;;;;;;;;;;27.30;53.60;;;;;;5034855;28;19917;-65
2021/06/19 08:11:13;;;;;;;;;;;27.30;53.60;;;;;;5030773;28;19970;-65
2021/06/19 08:13:38;;;;;;;;;;;27.30;53.50;;;;;;5034445;28;19928;-65
2021/06/19 08:16:05;;;;;;;;;;;27.30;53.50;;;;;;5035144;28;19921;-65
2021/06/19 08:18:31;;;;;;;;;;;27.20;53.50;;;;;;5036627;28;19921;-65
2021/06/19 08:20:56;;;;;;;;;;;27.30;53.70;;;;;;5036326;28;19921;-64
2021/06/19 08:23:22;;;;;;;;;;;27.30;53.60;;;;;;5030442;28;19924;-65
2021/06/19 08:25:47;;;;;;;;;;;27.30;53.60;;;;;;5039973;28;19917;-64
2021/06/19 08:28:13;;;;;;;;;;;27.30;53.60;;;;;;5036720;28;19952;-65
2021/06/19 08:30:38;;;;;;;;;;;27.30;53.70;;;;;;5042555;28;19924;-65
2021/06/19 08:33:04;;;;;;;;;;;27.30;53.60;;;;;;5043861;28;19924;-65
2021/06/19 08:35:29;;;;;;;;;;;27.30;53.70;;;;;;5040733;28;19928;-64
2021/06/19 08:37:54;;;;;;;;;;;27.30;54.00;;;;;;5031394;28;19927;-65
2021/06/19 08:40:20;;;;;;;;;;;27.30;53.90;;;;;;5029129;28;20415;-65
2021/06/19 08:42:45;;;;;;;;;;;27.30;53.80;;;;;;5040980;28;19928;-65
2021/06/19 08:45:11;;;;;;;;;;;27.30;53.80;;;;;;5030267;28;19946;-66
2021/06/19 08:47:37;;;;;;;;;;;27.30;53.70;;;;;;5032562;28;20004;-65
2021/06/19 08:50:05;;;;;;;;;;;27.30;53.60;;;;;;5033958;28;19955;-65
2021/06/19 08:52:31;;;;;;;;;;;27.30;53.60;;;;;;5035361;28;19928;-65
2021/06/19 08:54:56;;;;;;;;;;;27.30;53.60;;;;;;5033648;28;19921;-64
2021/06/19 08:57:22;;;;;;;;;;;27.30;53.60;;;;;;5034895;28;19932;-66
2021/06/19 08:59:48;;;;;;;;;;;27.30;53.50;;;;;;5035034;28;19970;-67
2021/06/19 09:02:14;;;;;;;;;;;27.30;53.60;;;;;;5034696;28;19917;-65
2021/06/19 09:04:54;;;;;;;;;;;27.30;53.70;;;;;;5032983;28;19925;-65
2021/06/19 09:07:38;;;;;;;;;;;27.40;53.90;;;;;;5030012;28;19917;-65
2021/06/19 09:10:19;;;;;;;;;;;27.30;53.80;;;;;;5034592;28;20634;-66
2021/06/19 09:12:54;;;;;;;;;;;27.40;53.90;;;;;;5028511;28;19917;-65
2021/06/19 09:15:19;;;;;;;;;;;27.40;53.80;;;;;;5028561;28;19975;-65
2021/06/19 09:17:59;;;;;;;;;;;27.40;53.90;;;;;;5030605;28;19920;-66
2021/06/19 09:20:34;;;;;;;;;;;27.40;54.00;;;;;;5033233;28;19918;-66
2021/06/19 09:23:03;;;;;;;;;;;27.40;54.10;;;;;;5032969;28;19921;-65
2021/06/19 09:25:28;;;;;;;;;;;27.40;54.00;;;;;;5034779;28;19917;-65
2021/06/19 09:27:56;;;;;;;;;;;27.40;54.00;;;;;;5032241;28;19925;-65
2021/06/19 09:30:22;;;;;;;;;;;27.40;54.10;;;;;;5028658;28;20354;-66
2021/06/19 09:32:56;;;;;;;;;;;27.40;54.20;;;;;;5031937;28;19921;-65
2021/06/19 09:35:25;;;;;;;;;;;27.40;54.30;;;;;;5036325;28;19921;-66
2021/06/19 09:37:58;;;;;;;;;;;27.40;54.30;;;;;;5030165;28;19931;-66
2021/06/19 09:40:42;;;;;;;;;;;27.40;54.50;;;;;;5031583;28;19924;-66
2021/06/19 09:43:14;;;;;;;;;;;27.40;54.30;;;;;;5027084;28;19924;-65
2021/06/19 09:45:41;;;;;;;;;;;27.40;54.40;;;;;;5033684;28;19984;-66
2021/06/19 09:48:21;;;;;;;;;;;27.50;54.50;;;;;;5027675;28;19916;-67
2021/06/19 09:50:47;;;;;;;;;;;27.40;54.50;;;;;;5024087;28;19948;-66
2021/06/19 09:53:12;;;;;;;;;;;27.40;54.50;;;;;;5026283;28;19970;-66
2021/06/19 09:55:41;;;;;;;;;;;27.40;54.50;;;;;;5013417;28;21028;-67
2021/06/19 09:58:07;;;;;;;;;;;27.40;54.50;;;;;;5013885;28;19967;-66
2021/06/19 10:00:36;;;;;;;;;;;27.50;54.70;;;;;;5038239;28;19916;-66
2021/06/19 10:03:02;;;;;;;;;;;27.50;54.80;;;;;;5033613;28;19917;-66
2021/06/19 10:05:27;;;;;;;;;;;27.50;55.10;;;;;;5037257;28;19932;-66
2021/06/19 10:07:53;;;;;;;;;;;27.50;55.00;;;;;;5043404;28;20403;-66
2021/06/19 10:10:18;;;;;;;;;;;27.50;55.40;;;;;;5020915;28;19970;-66
2021/06/19 10:12:44;;;;;;;;;;;27.50;55.30;;;;;;5029940;28;19960;-66
2021/06/19 10:15:10;;;;;;;;;;;27.50;54.90;;;;;;5035644;28;20372;-67
2021/06/19 10:17:36;;;;;;;;;;;27.50;55.10;;;;;;5029335;28;20404;-66
2021/06/19 10:20:03;;;;;;;;;;;27.50;55.00;;;;;;5037121;28;19921;-66
2021/06/19 10:22:28;;;;;;;;;;;27.50;55.00;;;;;;5030467;28;19975;-66
2021/06/19 10:24:54;;;;;;;;;;;27.50;55.80;;;;;;5029737;28;20000;-66
2021/06/19 10:27:19;;;;;;;;;;;27.50;55.70;;;;;;5022589;28;20000;-66
2021/06/19 10:29:45;;;;;;;;;;;27.50;55.30;;;;;;5032724;28;20439;-66
2021/06/19 10:32:11;;;;;;;;;;;27.50;55.10;;;;;;5024637;28;20019;-66
2021/06/19 10:34:38;;;;;;;;;;;27.50;55.10;;;;;;5034093;28;20378;-66
2021/06/19 10:37:09;;;;;;;;;;;27.50;55.10;;;;;;5032229;28;20272;-66
2021/06/19 10:39:44;;;;;;;;;;;27.50;55.00;;;;;;5030281;28;19921;-66
2021/06/19 10:42:21;;;;;;;;;;;27.60;55.10;;;;;;5030806;28;19971;-67
2021/06/19 10:44:50;;;;;;;;;;;27.50;55.00;;;;;;5031179;28;19917;-66
2021/06/19 10:47:19;;;;;;;;;;;27.50;54.90;;;;;;5036118;28;19939;-66
2021/06/19 10:49:44;;;;;;;;;;;27.60;55.10;;;;;;5036799;28;19917;-66
2021/06/19 10:52:23;;;;;;;;;;;27.60;54.80;;;;;;5029926;28;19921;-67
2021/06/19 10:55:07;;;;;;;;;;;27.60;54.90;;;;;;5019552;28;20004;-67
2021/06/19 10:57:45;;;;;;;;;;;27.60;54.90;;;;;;5026799;28;19917;-66
2021/06/19 11:00:23;;;;;;;;;;;27.60;54.90;;;;;;5030164;28;19921;-66
2021/06/19 11:02:48;;;;;;;;;;;27.60;55.00;;;;;;5035049;28;19924;-66
2021/06/19 11:05:25;;;;;;;;;;;27.60;55.00;;;;;;5028798;28;19917;-67
2021/06/19 11:07:53;;;;;;;;;;;27.60;55.00;;;;;;5024918;28;20000;-67
2021/06/19 11:10:37;;;;;;;;;;;27.60;55.00;;;;;;5026440;28;19917;-66
2021/06/19 11:13:21;;;;;;;;;;;27.60;55.10;;;;;;5040650;28;20379;-66
2021/06/19 11:15:47;;;;;;;;;;;27.60;55.20;;;;;;5034043;28;19920;-66
2021/06/19 11:18:12;;;;;;;;;;;27.70;55.20;;;;;;5029064;28;19970;-67
2021/06/19 11:20:38;;;;;;;;;;;27.60;55.20;;;;;;5009550;28;19917;-66
2021/06/19 11:23:03;;;;;;;;;;;27.60;55.20;;;;;;5037875;28;20362;-66
2021/06/19 11:25:31;;;;;;;;;;;27.70;55.20;;;;;;5030252;28;19920;-66
2021/06/19 11:28:06;;;;;;;;;;;27.70;55.50;;;;;;5031020;28;19943;-66
2021/06/19 11:30:37;;;;;;;;;;;27.70;55.70;;;;;;5025759;28;19923;-66
2021/06/19 11:33:15;;;;;;;;;;;27.70;55.50;;;;;;5024575;28;19971;-66
2021/06/19 11:35:41;;;;;;;;;;;27.70;55.80;;;;;;5028884;28;20368;-67
2021/06/19 11:38:06;;;;;;;;;;;27.70;55.80;;;;;;5049922;22;19921;-63
2021/06/19 11:40:32;;;;;;;;;;;27.70;55.90;;;;;;5054738;28;19970;-67
2021/06/19 11:42:58;;;;;;;;;;;27.70;55.80;;;;;;5056373;28;19994;-67
2021/06/19 11:45:23;;;;;;;;;;;27.70;55.90;;;;;;5053396;28;20692;-68
2021/06/19 11:48:01;;;;;;;;;;;27.70;55.90;;;;;;5071751;28;19917;-68
2021/06/19 11:50:28;;;;;;;;;;;27.70;55.90;;;;;;5047631;28;20300;-68
2021/06/19 11:52:53;;;;;;;;;;;27.70;55.80;;;;;;5040982;28;19960;-69
2021/06/19 11:55:21;;;;;;;;;;;27.70;55.80;;;;;;5054745;28;19939;-69
2021/06/19 11:57:55;;;;;;;;;;;27.70;55.80;;;;;;5050245;28;20306;-68
2021/06/19 12:00:21;;;;;;;;;;;27.70;55.90;;;;;;5041515;28;19983;-68
2021/06/19 12:02:50;;;;;;;;;;;27.70;55.90;;;;;;5047237;28;20681;-67
2021/06/19 12:05:16;;;;;;;;;;;27.70;55.90;;;;;;5044979;28;20272;-68
2021/06/19 12:07:42;;;;;;;;;;;27.80;56.00;;;;;;5050763;28;19925;-68
2021/06/19 12:10:40;;;;;;;;;;;27.80;55.90;;;;;;5051133;28;19947;-69
2021/06/19 12:13:07;;;;;;;;;;;27.80;56.00;;;;;;5012610;28;19931;-68
2021/06/19 12:15:33;;;;;;;;;;;27.80;55.80;;;;;;5050710;28;20419;-67
2021/06/19 12:18:00;;;;;;;;;;;27.80;55.90;;;;;;5043450;28;19993;-68
2021/06/19 12:20:25;;;;;;;;;;;27.80;56.00;;;;;;5048192;28;20399;-68
2021/06/19 12:22:51;;;;;;;;;;;27.80;56.00;;;;;;5049304;28;19962;-71
2021/06/19 12:25:26;;;;;;;;;;;27.80;56.30;;;;;;5044134;28;20375;-68
2021/06/19 12:27:51;;;;;;;;;;;27.80;56.20;;;;;;5052049;28;20015;-68
2021/06/19 12:30:17;;;;;;;;;;;27.80;56.10;;;;;;5045007;28;19916;-68
2021/06/19 12:32:43;;;;;;;;;;;27.80;56.30;;;;;;5045546;28;19928;-68
2021/06/19 12:35:13;;;;;;;;;;;27.80;56.20;;;;;;5042295;28;19960;-70
2021/06/19 12:37:39;;;;;;;;;;;27.90;56.30;;;;;;5048620;28;19943;-69
2021/06/19 12:40:05;;;;;;;;;;;27.90;56.90;;;;;;5044308;28;21860;-70
2021/06/19 12:42:54;;;;;;;;;;;27.90;56.20;;;;;;5046078;28;20007;-71
2021/06/19 12:45:20;;;;;;;;;;;27.90;56.20;;;;;;5037642;28;19917;-70
2021/06/19 12:47:46;;;;;;;;;;;27.90;56.20;;;;;;5036959;28;19940;-71
2021/06/19 12:50:13;;;;;;;;;;;27.90;56.10;;;;;;5048550;28;19916;-67
2021/06/19 12:52:57;;;;;;;;;;;27.90;56.10;;;;;;5048866;28;20418;-66
2021/06/19 12:55:23;;;;;;;;;;;27.90;56.10;;;;;;5048236;28;19955;-66
2021/06/19 12:58:01;;;;;;;;;;;27.90;56.30;;;;;;5057442;28;20379;-67
2021/06/19 13:00:33;;;;;;;;;;;27.90;56.10;;;;;;5047647;28;19917;-67
2021/06/19 13:02:59;;;;;;;;;;;28.00;56.30;;;;;;5060274;28;20489;-68
2021/06/19 13:05:24;;;;;;;;;;;28.00;56.20;;;;;;5057123;28;19923;-68
2021/06/19 13:07:50;;;;;;;;;;;27.90;56.10;;;;;;5053347;28;20506;-67
2021/06/19 13:10:31;;;;;;;;;;;27.90;56.10;;;;;;5027941;28;19917;-67
2021/06/19 13:12:56;;;;;;;;;;;28.00;56.30;;;;;;5047209;28;19921;-67
2021/06/19 13:15:21;;;;;;;;;;;28.00;56.20;;;;;;5056986;28;19971;-67
2021/06/19 13:17:47;;;;;;;;;;;28.00;56.40;;;;;;5054914;28;19916;-67
2021/06/19 13:20:37;;;;;;;;;;;28.00;56.30;;;;;;5043747;28;19916;-68
2021/06/19 13:23:06;;;;;;;;;;;28.00;56.30;;;;;;5060295;28;19924;-68
2021/06/19 13:25:51;;;;;;;;;;;28.00;56.30;;;;;;5057413;28;19955;-68
2021/06/19 13:28:17;;;;;;;;;;;28.00;56.40;;;;;;5050961;28;19921;-68
2021/06/19 13:30:42;;;;;;;;;;;28.00;56.50;;;;;;5055464;28;20616;-68
2021/06/19 13:33:07;;;;;;;;;;;28.00;56.50;;;;;;5053922;28;19925;-68
2021/06/19 13:35:48;;;;;;;;;;;28.00;56.40;;;;;;5051573;28;19936;-68
2021/06/19 13:38:14;;;;;;;;;;;28.00;56.40;;;;;;5054396;28;19951;-68
2021/06/19 13:40:40;;;;;;;;;;;28.00;56.40;;;;;;5056680;28;19928;-68
2021/06/19 13:43:05;;;;;;;;;;;28.00;56.40;;;;;;5057697;28;20376;-67
2021/06/19 13:45:30;;;;;;;;;;;28.10;56.40;;;;;;5048733;28;19920;-68
2021/06/19 13:47:56;;;;;;;;;;;28.00;56.40;;;;;;5047843;28;19936;-67
2021/06/19 13:50:21;;;;;;;;;;;28.10;56.60;;;;;;5052488;28;20422;-68
2021/06/19 13:52:49;;;;;;;;;;;28.10;56.50;;;;;;5050549;28;19917;-68
2021/06/19 13:55:16;;;;;;;;;;;28.10;56.40;;;;;;5056579;28;19928;-68
2021/06/19 13:57:41;;;;;;;;;;;28.10;56.50;;;;;;5060995;28;19917;-68
2021/06/19 14:00:07;;;;;;;;;;;28.10;56.50;;;;;;5048130;28;19932;-67
2021/06/19 14:02:32;;;;;;;;;;;28.10;56.80;;;;;;5046986;28;20403;-68
2021/06/19 14:04:58;;;;;;;;;;;28.10;56.40;;;;;;5055595;28;20414;-67
2021/06/19 14:07:24;;;;;;;;;;;28.10;56.50;;;;;;5048941;28;19962;-68
2021/06/19 14:09:50;;;;;;;;;;;28.10;56.50;;;;;;5050642;28;19917;-68
2021/06/19 14:12:15;;;;;;;;;;;28.10;56.50;;;;;;5050459;28;20351;-67
2021/06/19 14:14:41;;;;;;;;;;;28.10;56.20;;;;;;5059822;28;19917;-67